createdAt,value
2023-03-11T00:00:36.472Z,90.39
2023-03-11T00:03:06.465Z,90.97
2023-03-11T00:05:36.037Z,90.02
2023-03-11T00:08:04.463Z,90.54
2023-03-11T00:10:33.065Z,89.99
2023-03-11T00:13:00.577Z,88.91
2023-03-11T00:15:28.744Z,88.18
2023-03-11T00:17:55.738Z,89.13
2023-03-11T00:20:26.032Z,87.69
2023-03-11T00:22:53.082Z,88.95
2023-03-11T00:25:20.731Z,88.52
2023-03-11T00:27:47.386Z,89.76
2023-03-11T00:30:15.983Z,90.71
2023-03-11T00:32:42.775Z,89.41
2023-03-11T00:35:12.721Z,89.28
2023-03-11T00:37:40.702Z,88.80
2023-03-11T00:40:11.754Z,88.62
2023-03-11T00:42:38.354Z,89.68
2023-03-11T00:45:05.917Z,87.78
2023-03-11T00:47:32.590Z,89.41
2023-03-11T00:49:59.230Z,89.52
2023-03-11T00:52:26.078Z,88.44
2023-03-11T00:54:54.163Z,89.31
2023-03-11T00:57:20.715Z,89.12
2023-03-11T00:59:47.316Z,89.48
2023-03-11T01:02:13.909Z,89.84
2023-03-11T01:04:40.569Z,90.34
2023-03-11T01:07:07.262Z,90.78
2023-03-11T01:09:33.864Z,89.90
2023-03-11T01:12:01.815Z,90.24
2023-03-11T01:14:28.602Z,90.33
2023-03-11T01:16:55.209Z,90.12
2023-03-11T01:19:21.749Z,88.70
2023-03-11T01:21:48.541Z,89.71
2023-03-11T01:24:15.261Z,90.32
2023-03-11T01:26:41.816Z,90.18
2023-03-11T01:29:09.719Z,90.90
2023-03-11T01:31:36.425Z,90.33
2023-03-11T01:34:03.075Z,91.41
2023-03-11T01:36:29.632Z,91.42
2023-03-11T01:38:56.234Z,90.17
2023-03-11T01:41:22.953Z,90.50
2023-03-11T01:43:52.253Z,89.98
2023-03-11T01:46:22.113Z,88.86
2023-03-11T01:48:50.204Z,88.77
2023-03-11T01:51:22.632Z,87.93
2023-03-11T01:53:49.364Z,88.46
2023-03-11T01:56:16.181Z,88.45
2023-03-11T01:58:46.129Z,87.98
2023-03-11T02:01:13.131Z,88.51
2023-03-11T02:03:42.463Z,87.76
2023-03-11T02:06:11.581Z,87.74
2023-03-11T02:08:40.758Z,86.93
2023-03-11T02:11:10.815Z,85.67
2023-03-11T02:13:40.849Z,85.70
2023-03-11T02:16:07.918Z,85.74
2023-03-11T02:18:35.388Z,86.48
2023-03-11T02:21:14.467Z,85.54
2023-03-11T02:23:48.564Z,86.08
2023-03-11T02:26:20.950Z,85.57
2023-03-11T02:28:50.566Z,86.35
2023-03-11T02:31:17.384Z,86.67
2023-03-11T02:33:46.526Z,86.30
2023-03-11T02:36:34.708Z,86.93
2023-03-11T02:39:01.300Z,86.81
2023-03-11T02:41:29.926Z,86.92
2023-03-11T02:43:58.906Z,86.56
2023-03-11T02:46:26.060Z,87.66
2023-03-11T02:48:54.199Z,88.42
2023-03-11T02:51:20.950Z,87.75
2023-03-11T02:53:50.587Z,87.32
2023-03-11T02:56:17.405Z,88.04
2023-03-11T02:58:43.951Z,87.81
2023-03-11T03:01:12.052Z,88.92
2023-03-11T03:03:38.782Z,88.19
2023-03-11T03:06:06.160Z,88.29
2023-03-11T03:08:32.952Z,87.57
2023-03-11T03:10:59.486Z,87.56
2023-03-11T03:13:26.327Z,87.23
2023-03-11T03:15:52.851Z,87.80
2023-03-11T03:18:21.177Z,87.59
2023-03-11T03:20:47.885Z,88.10
2023-03-11T03:23:14.438Z,88.49
2023-03-11T03:25:42.580Z,87.62
2023-03-11T03:28:09.348Z,88.14
2023-03-11T03:30:35.942Z,87.99
2023-03-11T03:33:02.604Z,88.98
2023-03-11T03:35:30.999Z,88.82
2023-03-11T03:37:57.538Z,89.73
2023-03-11T03:40:24.631Z,90.13
2023-03-11T03:42:51.175Z,90.96
2023-03-11T03:45:17.995Z,91.32
2023-03-11T03:47:44.575Z,91.43
2023-03-11T03:50:12.521Z,92.25
2023-03-11T03:52:40.422Z,92.69
2023-03-11T03:55:07.553Z,93.13
2023-03-11T03:57:34.090Z,93.02
2023-03-11T04:00:00.603Z,93.21
2023-03-11T04:02:27.235Z,94.40
2023-03-11T04:04:53.789Z,94.43
2023-03-11T04:07:20.353Z,93.82
2023-03-11T04:09:48.338Z,94.12
2023-03-11T04:12:15.367Z,93.70
2023-03-11T04:14:42.224Z,94.54
2023-03-11T04:17:10.637Z,95.28
2023-03-11T04:19:37.257Z,94.31
2023-03-11T04:22:03.821Z,94.25
2023-03-11T04:24:30.571Z,94.16
2023-03-11T04:26:58.423Z,92.26
2023-03-11T04:29:24.940Z,93.40
2023-03-11T04:31:51.512Z,93.23
2023-03-11T04:34:18.246Z,93.89
2023-03-11T04:36:44.770Z,94.14
2023-03-11T04:39:11.408Z,94.84
2023-03-11T04:41:38.043Z,94.64
2023-03-11T04:44:05.964Z,95.47
2023-03-11T04:46:32.732Z,96.29
2023-03-11T04:48:59.292Z,96.81
2023-03-11T04:51:25.854Z,96.97
2023-03-11T04:53:52.390Z,98.38
2023-03-11T04:56:18.941Z,98.55
2023-03-11T04:58:45.486Z,98.57
2023-03-11T05:01:13.436Z,99.35
2023-03-11T05:03:40.042Z,99.39
2023-03-11T05:06:07.100Z,99.65
2023-03-11T05:08:33.812Z,100.00
2023-03-11T05:11:00.416Z,100.00
2023-03-11T05:13:27.197Z,100.00
2023-03-11T05:15:54.024Z,100.00
2023-03-11T05:18:21.997Z,100.00
2023-03-11T05:20:48.561Z,100.00
2023-03-11T05:23:15.126Z,100.00
2023-03-11T05:25:41.813Z,100.00
2023-03-11T05:28:08.456Z,100.00
2023-03-11T05:30:35.043Z,100.00
2023-03-11T05:33:01.630Z,100.00
2023-03-11T05:35:29.686Z,100.00
2023-03-11T05:37:56.257Z,100.00
2023-03-11T05:40:22.913Z,100.00
2023-03-11T05:42:49.648Z,100.00
2023-03-11T05:45:16.301Z,100.00
2023-03-11T05:47:43.010Z,100.00
2023-03-11T05:50:11.343Z,100.00
2023-03-11T05:52:39.403Z,100.00
2023-03-11T05:55:06.831Z,100.00
2023-03-11T05:57:33.368Z,100.00
2023-03-11T05:59:59.908Z,100.00
2023-03-11T06:02:26.492Z,100.00
2023-03-11T06:04:53.209Z,100.00
2023-03-11T06:07:19.912Z,100.00
2023-03-11T06:09:50.174Z,100.00
2023-03-11T06:12:16.683Z,100.00
2023-03-11T06:14:43.253Z,100.00
2023-03-11T06:17:09.852Z,100.00
2023-03-11T06:19:36.487Z,100.00
2023-03-11T06:22:03.055Z,100.00
2023-03-11T06:24:29.619Z,100.00
2023-03-11T06:26:57.572Z,100.00
2023-03-11T06:29:24.315Z,100.00
2023-03-11T06:31:51.182Z,100.00
2023-03-11T06:34:19.854Z,100.00
2023-03-11T06:36:46.387Z,100.00
2023-03-11T06:39:13.922Z,100.00
2023-03-11T06:41:43.203Z,100.00
2023-03-11T06:44:11.596Z,100.00
2023-03-11T06:46:38.411Z,100.00
2023-03-11T06:49:05.080Z,100.00
2023-03-11T06:51:31.849Z,100.00
2023-03-11T06:53:58.453Z,100.00
2023-03-11T06:56:25.383Z,100.00
2023-03-11T06:58:53.349Z,100.00
2023-03-11T07:01:22.656Z,100.00
2023-03-11T07:03:50.424Z,99.04
2023-03-11T07:06:18.108Z,96.31
2023-03-11T07:08:46.398Z,95.98
2023-03-11T07:11:15.504Z,95.22
2023-03-11T07:13:42.627Z,94.42
2023-03-11T07:16:11.878Z,94.11
2023-03-11T07:18:39.929Z,93.62
2023-03-11T07:21:08.095Z,93.44
2023-03-11T07:23:35.970Z,92.78
2023-03-11T07:26:02.554Z,92.61
2023-03-11T07:28:29.593Z,92.63
2023-03-11T07:30:56.446Z,89.95
2023-03-11T07:33:23.531Z,90.06
2023-03-11T07:35:52.091Z,88.76
2023-03-11T07:38:19.830Z,85.13
2023-03-11T07:40:46.678Z,83.02
2023-03-11T07:43:13.323Z,83.76
2023-03-11T07:45:39.940Z,81.88
2023-03-11T07:48:06.636Z,82.87
2023-03-11T07:50:33.245Z,81.67
2023-03-11T07:53:01.104Z,81.57
2023-03-11T07:55:27.839Z,79.81
2023-03-11T07:57:54.437Z,82.68
2023-03-11T08:00:21.523Z,78.59
2023-03-11T08:02:48.249Z,78.53
2023-03-11T08:05:14.849Z,79.12
2023-03-11T08:07:41.407Z,77.65
2023-03-11T08:10:10.875Z,76.09
2023-03-11T08:12:37.399Z,75.64
2023-03-11T08:15:04.751Z,75.90
2023-03-11T08:17:31.284Z,74.82
2023-03-11T08:19:57.993Z,72.96
2023-03-11T08:22:24.519Z,73.39
2023-03-11T08:24:54.084Z,70.36
2023-03-11T08:27:22.004Z,69.23
2023-03-11T08:29:48.537Z,69.32
2023-03-11T08:32:15.248Z,69.79
2023-03-11T08:34:41.828Z,68.58
2023-03-11T08:37:08.502Z,69.38
2023-03-11T08:39:35.095Z,70.38
2023-03-11T08:42:02.293Z,68.84
2023-03-11T08:44:30.257Z,70.68
2023-03-11T08:46:57.035Z,67.26
2023-03-11T08:49:23.868Z,67.64
2023-03-11T08:51:50.524Z,70.66
2023-03-11T08:54:17.303Z,68.38
2023-03-11T08:56:43.854Z,69.42
2023-03-11T08:59:10.411Z,68.98
2023-03-11T09:01:38.487Z,70.40
2023-03-11T09:04:05.419Z,71.50
2023-03-11T09:06:32.193Z,71.36
2023-03-11T09:08:58.857Z,71.50
2023-03-11T09:11:25.915Z,70.68
2023-03-11T09:13:52.494Z,68.97
2023-03-11T09:16:21.833Z,69.71
2023-03-11T09:18:49.944Z,68.49
2023-03-11T09:21:16.846Z,67.96
2023-03-11T09:23:44.486Z,68.96
2023-03-11T09:26:11.365Z,67.05
2023-03-11T09:28:38.315Z,66.65
2023-03-11T09:31:05.081Z,67.47
2023-03-11T09:33:31.875Z,65.32
2023-03-11T09:35:59.871Z,66.02
2023-03-11T09:38:26.430Z,64.96
2023-03-11T09:40:59.316Z,62.66
2023-03-11T09:43:43.180Z,63.30
2023-03-11T09:46:26.307Z,63.81
2023-03-11T09:49:00.649Z,64.11
2023-03-11T09:51:32.665Z,62.79
2023-03-11T09:54:03.830Z,59.99
2023-03-11T09:56:34.244Z,61.34
2023-03-11T09:59:04.760Z,60.34
2023-03-11T10:01:34.363Z,60.45
2023-03-11T10:04:08.009Z,60.19
2023-03-11T10:06:36.611Z,59.70
2023-03-11T10:09:15.727Z,60.58
2023-03-11T10:11:51.096Z,59.91
2023-03-11T10:14:37.700Z,60.94
2023-03-11T10:17:14.518Z,56.89
2023-03-11T10:19:48.200Z,57.27
2023-03-11T10:22:26.767Z,56.64
2023-03-11T10:25:03.128Z,57.82
2023-03-11T10:27:35.402Z,56.56
2023-03-11T10:30:07.107Z,57.09
2023-03-11T10:32:41.066Z,58.51
2023-03-11T10:35:16.951Z,58.51
2023-03-11T10:37:51.456Z,57.78
2023-03-11T10:40:24.561Z,57.16
2023-03-11T10:42:53.767Z,56.32
2023-03-11T10:45:21.659Z,58.43
2023-03-11T10:47:48.329Z,58.20
2023-03-11T10:50:16.835Z,57.26
2023-03-11T10:53:01.500Z,58.48
2023-03-11T10:55:28.019Z,58.67
2023-03-11T10:58:05.578Z,58.68
2023-03-11T11:00:32.277Z,62.83
2023-03-11T11:02:58.900Z,55.71
2023-03-11T11:05:31.342Z,59.30
2023-03-11T11:08:07.603Z,55.33
2023-03-11T11:10:37.791Z,51.73
2023-03-11T11:13:18.562Z,51.94
2023-03-11T11:15:53.562Z,51.77
2023-03-11T11:18:23.594Z,52.81
2023-03-11T11:20:59.443Z,52.63
2023-03-11T11:23:31.945Z,55.19
2023-03-11T11:25:59.896Z,53.32
2023-03-11T11:28:26.567Z,53.72
2023-03-11T11:30:55.373Z,53.31
2023-03-11T11:33:25.138Z,55.23
2023-03-11T11:35:53.996Z,56.08
2023-03-11T11:38:22.649Z,54.41
2023-03-11T11:40:51.397Z,55.77
2023-03-11T11:43:22.316Z,55.35
2023-03-11T11:45:55.215Z,53.70
2023-03-11T11:48:29.093Z,56.24
2023-03-11T11:50:59.255Z,54.29
2023-03-11T11:53:34.961Z,54.59
2023-03-11T11:56:03.572Z,54.95
2023-03-11T11:58:30.789Z,56.42
2023-03-11T12:01:15.028Z,53.71
2023-03-11T12:04:26.896Z,54.85
2023-03-11T12:07:04.125Z,52.56
2023-03-11T12:09:38.408Z,52.33
2023-03-11T12:12:16.562Z,54.96
2023-03-11T12:14:49.721Z,53.68
2023-03-11T12:17:19.780Z,52.33
2023-03-11T12:19:52.805Z,55.68
2023-03-11T12:22:40.945Z,57.25
2023-03-11T12:25:24.186Z,55.93
2023-03-11T12:27:59.825Z,56.60
2023-03-11T12:30:29.832Z,55.44
2023-03-11T12:33:00.666Z,54.14
2023-03-11T12:35:29.303Z,53.62
2023-03-11T12:38:05.176Z,53.27
2023-03-11T12:40:50.224Z,53.52
2023-03-11T12:43:26.954Z,53.17
2023-03-11T12:45:54.021Z,52.61
2023-03-11T12:48:34.987Z,52.32
2023-03-11T12:51:02.147Z,48.87
2023-03-11T12:53:46.836Z,49.63
2023-03-11T12:56:29.862Z,52.20
2023-03-11T12:59:35.676Z,52.59
2023-03-11T13:02:19.985Z,53.08
2023-03-11T13:04:56.447Z,50.64
2023-03-11T13:07:48.166Z,51.16
2023-03-11T13:10:33.444Z,51.58
2023-03-11T13:13:00.277Z,56.10
2023-03-11T13:15:37.481Z,52.41
2023-03-11T13:18:16.617Z,54.25
2023-03-11T13:21:01.998Z,52.20
2023-03-11T13:23:39.051Z,53.80
2023-03-11T13:26:16.473Z,57.05
2023-03-11T13:29:03.937Z,50.91
2023-03-11T13:31:43.740Z,51.44
2023-03-11T13:34:16.275Z,53.73
2023-03-11T13:37:08.687Z,51.99
2023-03-11T13:39:58.148Z,50.73
2023-03-11T13:42:30.214Z,50.66
2023-03-11T13:44:58.084Z,50.24
2023-03-11T13:47:27.291Z,49.34
2023-03-11T13:50:00.589Z,48.19
2023-03-11T13:52:31.537Z,48.72
2023-03-11T13:55:03.266Z,48.83
2023-03-11T13:57:31.240Z,47.28
2023-03-11T14:00:04.357Z,46.74
2023-03-11T14:02:32.467Z,47.16
2023-03-11T14:05:05.252Z,48.07
2023-03-11T14:07:33.834Z,48.89
2023-03-11T14:10:21.323Z,48.92
2023-03-11T14:12:48.514Z,50.02
2023-03-11T14:15:20.558Z,51.19
2023-03-11T14:17:48.951Z,50.38
2023-03-11T14:20:17.262Z,50.72
2023-03-11T14:22:45.536Z,49.35
2023-03-11T14:25:18.144Z,47.75
2023-03-11T14:27:50.489Z,47.67
2023-03-11T14:30:20.715Z,49.45
2023-03-11T14:32:58.911Z,49.94
2023-03-11T14:35:26.411Z,46.88
2023-03-11T14:37:53.062Z,49.61
2023-03-11T14:40:24.451Z,50.13
2023-03-11T14:42:52.679Z,46.58
2023-03-11T14:45:21.723Z,48.50
2023-03-11T14:47:53.580Z,45.57
2023-03-11T14:50:24.401Z,44.51
2023-03-11T14:52:55.524Z,40.85
2023-03-11T14:55:25.444Z,40.72
2023-03-11T14:57:55.131Z,44.30
2023-03-11T15:00:24.313Z,40.64
2023-03-11T15:03:01.013Z,40.25
2023-03-11T15:05:35.885Z,41.13
2023-03-11T15:08:04.917Z,42.37
2023-03-11T15:10:31.712Z,43.65
2023-03-11T15:13:10.705Z,43.87
2023-03-11T15:15:37.268Z,42.26
2023-03-11T15:18:19.368Z,42.27
2023-03-11T15:21:00.530Z,42.43
2023-03-11T15:23:27.192Z,46.83
2023-03-11T15:25:53.858Z,43.67
2023-03-11T15:28:22.497Z,44.29
2023-03-11T15:30:49.265Z,45.06
2023-03-11T15:33:24.052Z,46.15
2023-03-11T15:35:52.059Z,46.77
2023-03-11T15:38:21.758Z,46.69
2023-03-11T15:40:53.688Z,45.33
2023-03-11T15:43:24.033Z,47.65
2023-03-11T15:45:51.896Z,46.68
2023-03-11T15:48:18.431Z,47.48
2023-03-11T15:50:53.940Z,47.21
2023-03-11T15:53:23.661Z,47.38
2023-03-11T15:55:51.397Z,48.85
2023-03-11T15:58:19.799Z,47.16
2023-03-11T16:00:49.091Z,50.34
2023-03-11T16:03:16.209Z,47.35
2023-03-11T16:05:42.978Z,47.41
2023-03-11T16:08:10.058Z,51.67
2023-03-11T16:10:38.446Z,48.40
2023-03-11T16:13:05.723Z,48.75
2023-03-11T16:15:34.855Z,49.21
2023-03-11T16:18:03.176Z,50.19
2023-03-11T16:20:33.948Z,50.03
2023-03-11T16:23:00.849Z,50.47
2023-03-11T16:25:30.969Z,52.26
2023-03-11T16:27:59.494Z,50.18
2023-03-11T16:30:27.574Z,51.41
2023-03-11T16:32:54.236Z,52.27
2023-03-11T16:35:20.843Z,52.58
2023-03-11T16:37:47.737Z,53.84
2023-03-11T16:40:16.935Z,54.18
2023-03-11T16:42:43.984Z,55.33
2023-03-11T16:45:12.896Z,54.93
2023-03-11T16:47:39.456Z,56.42
2023-03-11T16:50:07.138Z,56.17
2023-03-11T16:52:34.109Z,59.63
2023-03-11T16:55:00.980Z,57.18
2023-03-11T16:57:27.803Z,58.26
2023-03-11T16:59:54.359Z,58.07
2023-03-11T17:02:24.520Z,62.52
2023-03-11T17:04:51.259Z,65.19
2023-03-11T17:07:17.884Z,64.12
2023-03-11T17:09:44.470Z,62.09
2023-03-11T17:12:10.986Z,66.52
2023-03-11T17:14:37.670Z,66.28
2023-03-11T17:17:04.410Z,65.20
2023-03-11T17:19:32.516Z,66.96
2023-03-11T17:21:59.113Z,65.97
2023-03-11T17:24:25.657Z,69.99
2023-03-11T17:26:52.234Z,69.87
2023-03-11T17:29:18.795Z,70.22
2023-03-11T17:31:45.519Z,71.65
2023-03-11T17:34:12.153Z,71.48
2023-03-11T17:36:40.160Z,73.24
2023-03-11T17:39:06.890Z,73.61
2023-03-11T17:41:33.425Z,74.66
2023-03-11T17:44:00.167Z,73.84
2023-03-11T17:46:26.791Z,76.33
2023-03-11T17:48:53.562Z,76.62
2023-03-11T17:51:22.097Z,77.78
2023-03-11T17:53:50.225Z,77.64
2023-03-11T17:56:19.007Z,78.89
2023-03-11T17:58:45.543Z,79.99
2023-03-11T18:01:14.184Z,78.95
2023-03-11T18:03:41.105Z,80.73
2023-03-11T18:06:08.447Z,80.84
2023-03-11T18:08:35.862Z,80.79
2023-03-11T18:11:08.334Z,81.53
2023-03-11T18:13:36.324Z,81.48
2023-03-11T18:16:05.313Z,82.00
2023-03-11T18:18:35.357Z,80.91
2023-03-11T18:21:02.250Z,81.92
2023-03-11T18:23:28.933Z,82.20
2023-03-11T18:25:55.507Z,81.29
2023-03-11T18:28:23.399Z,83.43
2023-03-11T18:30:50.025Z,83.39
2023-03-11T18:33:16.586Z,83.16
2023-03-11T18:35:43.102Z,83.57
2023-03-11T18:38:09.701Z,83.90
2023-03-11T18:40:36.277Z,83.54
2023-03-11T18:43:03.239Z,83.73
2023-03-11T18:45:31.324Z,83.94
2023-03-11T18:47:57.918Z,83.25
2023-03-11T18:50:24.651Z,83.42
2023-03-11T18:52:51.952Z,84.46
2023-03-11T18:55:18.606Z,84.20
2023-03-11T18:57:45.399Z,84.61
2023-03-11T19:00:12.905Z,85.61
2023-03-11T19:02:40.855Z,86.89
2023-03-11T19:05:08.052Z,87.30
2023-03-11T19:07:34.624Z,87.54
2023-03-11T19:10:01.315Z,88.58
2023-03-11T19:12:28.046Z,88.34
2023-03-11T19:14:54.580Z,88.75
2023-03-11T19:17:21.115Z,88.56
2023-03-11T19:19:49.183Z,88.12
2023-03-11T19:22:15.935Z,88.07
2023-03-11T19:24:42.545Z,89.22
2023-03-11T19:27:09.129Z,90.08
2023-03-11T19:29:35.703Z,89.49
2023-03-11T19:32:03.536Z,90.58
2023-03-11T19:34:30.377Z,90.47
2023-03-11T19:36:58.346Z,91.31
2023-03-11T19:39:24.905Z,92.01
2023-03-11T19:41:51.463Z,91.67
2023-03-11T19:44:18.017Z,91.83
2023-03-11T19:46:44.732Z,92.45
2023-03-11T19:49:11.391Z,92.67
2023-03-11T19:51:49.259Z,93.08
2023-03-11T19:54:18.076Z,92.95
2023-03-11T19:56:45.008Z,92.13
2023-03-11T19:59:11.681Z,92.35
2023-03-11T20:01:38.351Z,93.25
2023-03-11T20:04:05.384Z,93.29
2023-03-11T20:06:32.138Z,94.51
2023-03-11T20:08:58.878Z,95.01
2023-03-11T20:11:26.958Z,95.61
2023-03-11T20:13:53.496Z,95.31
2023-03-11T20:16:20.171Z,95.67
2023-03-11T20:18:49.157Z,95.35
2023-03-11T20:21:15.787Z,96.62
2023-03-11T20:23:42.360Z,96.45
2023-03-11T20:26:11.355Z,96.40
2023-03-11T20:28:39.528Z,96.58
2023-03-11T20:31:10.927Z,96.53
2023-03-11T20:33:38.457Z,96.04
2023-03-11T20:36:06.697Z,96.17
2023-03-11T20:38:33.337Z,97.00
2023-03-11T20:41:00.017Z,96.29
2023-03-11T20:43:26.865Z,95.88
2023-03-11T20:45:54.763Z,96.24
2023-03-11T20:48:21.375Z,96.84
2023-03-11T20:50:48.222Z,96.99
2023-03-11T20:53:15.405Z,97.22
2023-03-11T20:55:42.198Z,97.16
2023-03-11T20:58:08.743Z,97.57
2023-03-11T21:00:35.887Z,98.33
2023-03-11T21:03:03.922Z,98.74
2023-03-11T21:05:35.465Z,99.17
2023-03-11T21:08:02.435Z,98.94
2023-03-11T21:10:29.955Z,98.89
2023-03-11T21:12:56.660Z,98.67
2023-03-11T21:15:23.378Z,98.33
2023-03-11T21:17:52.567Z,99.07
2023-03-11T21:20:20.931Z,99.35
2023-03-11T21:22:47.596Z,99.08
2023-03-11T21:25:14.282Z,99.01
2023-03-11T21:27:40.864Z,99.19
2023-03-11T21:30:08.840Z,98.54
2023-03-11T21:32:35.728Z,98.91
2023-03-11T21:35:02.803Z,98.29
2023-03-11T21:37:31.010Z,98.04
2023-03-11T21:39:57.598Z,98.57
2023-03-11T21:42:24.469Z,98.10
2023-03-11T21:44:51.128Z,98.36
2023-03-11T21:47:18.189Z,98.90
2023-03-11T21:49:44.812Z,98.95
2023-03-11T21:52:11.602Z,99.32
2023-03-11T21:54:39.668Z,99.75
2023-03-11T21:57:06.342Z,100.00
2023-03-11T21:59:32.975Z,100.00
2023-03-11T22:01:59.671Z,100.00
2023-03-11T22:04:26.380Z,100.00
2023-03-11T22:06:54.871Z,100.00
2023-03-11T22:09:23.052Z,100.00
2023-03-11T22:11:51.293Z,100.00
2023-03-11T22:14:18.044Z,100.00
2023-03-11T22:16:44.884Z,100.00
2023-03-11T22:19:11.563Z,100.00
2023-03-11T22:21:38.183Z,100.00
2023-03-11T22:24:05.243Z,100.00
2023-03-11T22:26:32.048Z,100.00
2023-03-11T22:29:01.825Z,100.00
2023-03-11T22:31:29.819Z,100.00
2023-03-11T22:33:57.279Z,100.00
2023-03-11T22:36:23.998Z,100.00
2023-03-11T22:38:50.530Z,100.00
2023-03-11T22:41:17.235Z,100.00
2023-03-11T22:43:43.809Z,100.00
2023-03-11T22:46:11.848Z,100.00
2023-03-11T22:48:38.504Z,100.00
2023-03-11T22:51:06.222Z,100.00
2023-03-11T22:53:32.766Z,100.00
2023-03-11T22:55:59.321Z,100.00
2023-03-11T22:58:25.911Z,100.00
2023-03-11T23:00:52.470Z,100.00
2023-03-11T23:03:20.437Z,100.00
2023-03-11T23:05:46.998Z,100.00
2023-03-11T23:08:15.411Z,100.00
2023-03-11T23:10:43.445Z,100.00
2023-03-11T23:13:10.944Z,100.00
2023-03-11T23:15:40.510Z,100.00
2023-03-11T23:18:07.428Z,100.00
2023-03-11T23:20:37.158Z,100.00
2023-03-11T23:23:04.258Z,100.00
2023-03-11T23:25:31.109Z,100.00
2023-03-11T23:27:57.705Z,100.00
2023-03-11T23:30:24.715Z,100.00
2023-03-11T23:32:51.347Z,100.00
2023-03-11T23:35:18.177Z,100.00
2023-03-11T23:37:49.641Z,100.00
2023-03-11T23:40:16.904Z,100.00
2023-03-11T23:42:43.710Z,100.00
2023-03-11T23:45:11.134Z,100.00
2023-03-11T23:47:37.656Z,100.00
2023-03-11T23:50:05.132Z,100.00
2023-03-11T23:52:31.825Z,100.00
2023-03-11T23:54:59.993Z,100.00
2023-03-11T23:57:26.587Z,100.00
2023-03-11T23:59:53.440Z,100.00
